< < Back
Terminal Aerodrome Forecast


Current Version              Previous Versions:   1  2  3  4  5  6  7  8  9  

Terminal Aerodrome Forecast

343
FTUS42 KCAE 050245 AAA
TAFCAE
TAF AMD
KCAE 050245Z 0503/0524 23007KT P6SM BKN150
     FM050400 VRB05KT P6SM BKN150
     FM051300 20008KT P6SM SCT040 BKN120
     FM051600 22011G16KT P6SM VCSH SCT040 BKN120=

Latest METAR

621
SAUS80 KWBC 050100
MTRCAE
METAR KCAE 050056Z 20006KT 10SM OVC150 28/21 A3003 RMK AO2 SLP167
T02830211 $


USA.gov is the U.S. government's official web portal to all federal, state and local government web resources and services.